createdAt,value
2022-10-22T18:25:31.747Z,36.25
2022-10-22T18:27:58.982Z,34.58
2022-10-22T18:30:26.897Z,34.05
2022-10-22T18:32:54.330Z,33.92
2022-10-22T19:22:41.882Z,27.65
2022-10-22T19:25:16.756Z,27.70
2022-10-22T19:28:00.206Z,29.17
2022-10-22T19:30:33.199Z,25.80
2022-10-22T19:33:10.203Z,24.35
2022-10-22T19:36:21.078Z,24.55
2022-10-22T19:38:54.859Z,24.38
2022-10-22T19:41:24.405Z,25.27
2022-10-22T19:44:02.151Z,21.73
2022-10-22T19:46:32.321Z,20.98
2022-10-22T19:48:59.770Z,22.77
2022-10-22T19:52:03.822Z,20.45
2022-10-22T19:54:40.023Z,20.25
2022-10-22T19:57:10.193Z,18.80
2022-10-22T19:59:40.853Z,16.65
2022-10-22T20:02:15.915Z,17.30
2022-10-22T20:04:49.191Z,17.42
2022-10-22T20:07:23.305Z,16.95
2022-10-22T20:09:53.135Z,16.02
2022-10-22T20:12:28.112Z,17.65
2022-10-22T20:15:00.030Z,17.70
2022-10-22T20:17:36.054Z,15.65
2022-10-22T20:20:17.872Z,16.50
2022-10-22T20:22:49.254Z,15.52
2022-10-22T20:25:21.998Z,14.82
2022-10-22T20:27:49.140Z,13.57
2022-10-22T20:32:50.678Z,13.93
2022-10-22T20:35:21.402Z,14.80
2022-10-22T20:37:52.994Z,15.02
2022-10-22T20:40:20.563Z,14.48
2022-10-22T20:42:53.356Z,13.30
2022-10-22T20:45:21.047Z,12.38
2022-10-22T20:48:02.624Z,12.55
2022-10-22T20:50:37.650Z,10.80
2022-10-22T20:53:13.417Z,9.77
2022-10-22T20:55:48.873Z,10.45
2022-10-22T20:58:17.828Z,9.93
2022-10-22T21:00:49.147Z,9.48
2022-10-22T21:03:36.479Z,9.90
2022-10-22T21:06:04.926Z,8.90
2022-10-22T21:08:32.866Z,9.32
2022-10-22T21:11:03.116Z,9.65
2022-10-22T21:13:33.501Z,9.65
2022-10-22T21:16:09.338Z,10.77
2022-10-22T21:18:39.631Z,10.82
2022-10-22T21:21:46.055Z,9.13
2022-10-22T21:24:29.337Z,11.15
2022-10-22T21:27:07.414Z,11.82
2022-10-22T21:30:03.146Z,11.50
2022-10-22T21:32:33.071Z,11.53
2022-10-22T21:35:05.271Z,11.05
2022-10-22T21:37:45.043Z,10.45
2022-10-22T21:40:23.095Z,10.07
2022-10-22T21:42:54.651Z,10.93
2022-10-22T21:45:25.727Z,11.85
2022-10-22T21:47:56.458Z,10.98
2022-10-22T21:50:23.867Z,10.43
2022-10-22T21:53:09.113Z,9.45
2022-10-22T21:55:53.336Z,8.15
2022-10-22T21:58:49.253Z,8.23
2022-10-22T22:01:17.438Z,7.80
2022-10-22T22:03:49.400Z,8.25
2022-10-22T22:06:23.670Z,8.83
2022-10-22T22:09:04.111Z,7.53
2022-10-22T22:11:36.807Z,6.90
2022-10-22T22:14:06.880Z,7.30
2022-10-22T22:16:36.335Z,6.15
2022-10-22T22:19:06.649Z,6.05
2022-10-22T22:21:40.652Z,6.40
2022-10-22T22:24:16.315Z,5.82
2022-10-22T22:26:43.419Z,5.80
2022-10-22T22:29:11.302Z,5.15
2022-10-22T22:31:45.943Z,5.18
2022-10-22T22:34:19.923Z,4.55
2022-10-22T22:36:49.444Z,6.32
2022-10-22T22:39:20.162Z,4.22
2022-10-22T22:41:49.980Z,4.57
2022-10-22T22:44:20.627Z,4.03
2022-10-22T22:46:50.923Z,5.18
2022-10-22T22:49:20.434Z,8.32
2022-10-22T22:51:50.546Z,3.17
2022-10-22T22:54:17.498Z,3.95
2022-10-22T22:56:50.774Z,3.75
2022-10-22T22:59:18.071Z,3.42
2022-10-22T23:01:49.730Z,3.67
2022-10-22T23:04:22.910Z,3.50
2022-10-22T23:07:01.453Z,4.40
2022-10-22T23:09:30.939Z,3.78
2022-10-22T23:12:30.823Z,3.53
2022-10-22T23:15:02.102Z,3.60
2022-10-22T23:17:29.673Z,3.47
2022-10-22T23:20:10.505Z,4.20
2022-10-22T23:22:43.375Z,4.43
2022-10-22T23:25:10.725Z,4.55
2022-10-22T23:27:44.232Z,5.72
2022-10-22T23:30:12.151Z,5.88
2022-10-22T23:32:43.924Z,5.25
2022-10-22T23:35:13.292Z,6.95
2022-10-22T23:37:43.024Z,6.85
2022-10-22T23:40:14.999Z,6.63
2022-10-22T23:42:45.057Z,7.30
2022-10-22T23:45:15.142Z,7.80
2022-10-22T23:47:42.457Z,7.97
2022-10-22T23:50:13.100Z,8.40
2022-10-22T23:52:42.810Z,9.68
2022-10-22T23:55:10.121Z,10.05
2022-10-22T23:57:40.244Z,10.77
